Pays
Station

 

Conditions  météo  pour  Phoenix, Phoenix Sky Harbor International Airport  -  Etats-Unis    Etats-Unis

  
28 °C
    
 
 

METAR pour Phoenix, Phoenix Sky Harbor International Airport :

KPHX 232151Z 03019G27KT 10SM FEW100 BKN140 BKN200 28/03 A2983 RMK AO2 PK WND 02027/2142 SLP087 T02780028

 

Voici le bulletin pour Phoenix, Phoenix Sky Harbor International Airport - Etats-Unis.
 
Le bulletin a été fait il y a 18 minutes, à 21:51 UTC .
Le vent soufflait à la vitesse de 9.8 mètres par seconde avec des rafales jusqu'à 13.9 mètres par seconde de Nord/Nord-est (030°).
 
La température était de 28 °C, avec un point de rosée à 3 °C.
La température ressentie était de 27 °C.
 
La pression atmosphérique était de 1010 hPa.
L'humidité relative était de 20.0%.
 
Il y avait 1 à 2/8ème de nébulosité à une hauteur de 3048 mètres, 5 à 7/8ème de nébulosité à une hauteur de 4267 mètres et 5 à 7/8ème de nébulosité à une hauteur de 6096 mètres.
 
La visibilité globale était de 16.1 kilomètres.
 

 
 
 

Pays :   A   B   C   D   E   F   G   H   I   J   K   L   M   N   O   P   Q   R   S   T   U   V   W   Y   Z

 

Partenaires :  Info Météo avec Met'info
Météo Marine avec MeteoMarine.net
Infos Site  |  Infos Légales  |  Crédits  |  Confidentialité
Contactez-nous  |  Ajouter aux favoris
© 2013-2019 METAR - Tous droits réservés